createdAt,value
2022-10-18T00:01:10.432Z,103051.28
2022-10-18T00:03:39.425Z,103049.81
2022-10-18T00:06:10.280Z,103053.56
2022-10-18T00:08:40.065Z,103054.38
2022-10-18T00:11:09.020Z,103042.09
2022-10-18T00:13:37.608Z,103045.06
2022-10-18T00:16:11.073Z,103040.81
2022-10-18T00:18:39.796Z,103052.13
2022-10-18T00:21:12.370Z,103044.78
2022-10-18T00:23:41.123Z,103041.50
2022-10-18T00:26:12.721Z,103046.75
2022-10-18T00:28:41.881Z,103043.78
2022-10-18T00:31:10.807Z,103039.38
2022-10-18T00:33:39.444Z,103024.16
2022-10-18T00:36:09.817Z,103032.31
2022-10-18T00:38:39.007Z,103028.06
2022-10-18T00:41:08.632Z,103027.94
2022-10-18T00:43:52.740Z,103019.72
2022-10-18T00:46:21.327Z,103016.75
2022-10-18T00:48:50.377Z,103015.75
2022-10-18T00:51:21.390Z,103012.69
2022-10-18T00:53:50.446Z,103004.34
2022-10-18T00:56:19.141Z,103002.38
2022-10-18T00:58:49.151Z,103002.53
2022-10-18T01:01:17.930Z,103001.03
2022-10-18T01:03:46.800Z,103002.69
2022-10-18T01:06:15.283Z,103000.91
2022-10-18T01:08:59.214Z,102995.81
2022-10-18T01:11:50.276Z,102998.44
2022-10-18T01:14:31.672Z,102994.34
2022-10-18T01:17:04.385Z,103000.59
2022-10-18T01:20:28.432Z,102997.50
2022-10-18T01:23:01.604Z,102997.66
2022-10-18T01:25:42.079Z,102999.66
2022-10-18T01:28:26.712Z,103000.63
2022-10-18T01:31:00.154Z,102992.78
2022-10-18T01:33:34.973Z,102995.41
2022-10-18T01:36:08.665Z,102994.59
2022-10-18T01:38:39.616Z,102991.97
2022-10-18T01:41:14.796Z,102994.75
2022-10-18T01:43:46.728Z,102996.72
2022-10-18T01:46:21.072Z,102995.09
2022-10-18T01:48:50.410Z,102993.47
2022-10-18T01:51:21.250Z,102989.22
2022-10-18T01:53:49.731Z,102984.97
2022-10-18T01:56:28.849Z,102980.88
2022-10-18T01:59:04.033Z,102985.53
2022-10-18T02:01:45.038Z,102989.63
2022-10-18T02:04:24.346Z,102987.81
2022-10-18T02:06:59.444Z,102987.97
2022-10-18T02:09:35.743Z,102985.38
2022-10-18T02:12:06.141Z,102986.34
2022-10-18T02:14:35.957Z,102987.34
2022-10-18T02:17:09.707Z,102986.53
2022-10-18T02:19:41.727Z,102991.59
2022-10-18T02:22:13.309Z,102988.31
2022-10-18T02:24:46.233Z,102985.88
2022-10-18T02:27:14.867Z,102988.69
2022-10-18T02:29:44.535Z,102986.88
2022-10-18T02:32:21.787Z,102996.53
2022-10-18T02:34:58.458Z,102995.88
2022-10-18T02:37:32.269Z,103002.75
2022-10-18T02:40:00.732Z,102989.84
2022-10-18T02:42:35.363Z,102996.88
2022-10-18T02:45:04.674Z,102993.28
2022-10-18T02:47:34.486Z,102992.13
2022-10-18T02:50:03.083Z,102985.91
2022-10-18T02:52:32.068Z,102987.69
2022-10-18T02:55:01.421Z,102991.94
2022-10-18T02:57:31.704Z,102994.75
2022-10-18T03:00:00.373Z,102996.53
2022-10-18T03:02:28.866Z,102988.84
2022-10-18T03:04:58.631Z,102991.31
2022-10-18T03:07:27.297Z,102986.06
2022-10-18T03:09:55.720Z,102991.31
2022-10-18T03:12:24.155Z,102987.88
2022-10-18T03:14:52.731Z,102983.78
2022-10-18T03:17:21.186Z,102987.56
2022-10-18T03:19:49.601Z,102977.25
2022-10-18T03:22:19.709Z,102981.03
2022-10-18T03:24:48.214Z,102980.88
2022-10-18T03:27:16.607Z,102982.34
2022-10-18T03:29:45.085Z,102974.47
2022-10-18T03:32:13.419Z,102980.06
2022-10-18T03:34:41.932Z,102975.63
2022-10-18T03:37:10.346Z,102971.38
2022-10-18T03:39:40.137Z,102974.19
2022-10-18T03:42:08.666Z,102971.56
2022-10-18T03:44:37.073Z,102976.78
2022-10-18T03:47:05.648Z,102979.59
2022-10-18T03:52:07.510Z,102982.19
2022-10-18T03:54:35.901Z,102975.69
2022-10-18T03:57:05.764Z,102971.44
2022-10-18T03:59:34.545Z,102975.69
2022-10-18T04:02:03.042Z,102976.84
2022-10-18T04:04:31.611Z,102970.78
2022-10-18T04:07:00.045Z,102974.22
2022-10-18T04:09:28.515Z,102974.38
2022-10-18T04:11:56.969Z,102974.38
2022-10-18T04:14:26.918Z,102973.56
2022-10-18T04:16:55.437Z,102975.72
2022-10-18T04:19:23.806Z,102963.91
2022-10-18T04:21:52.327Z,102964.91
2022-10-18T04:24:20.885Z,102964.78
2022-10-18T04:26:49.471Z,102964.81
2022-10-18T04:29:17.904Z,102970.53
2022-10-18T04:31:48.374Z,102971.19
2022-10-18T04:34:16.805Z,102966.47
2022-10-18T04:36:45.283Z,102973.00
2022-10-18T04:39:13.733Z,102973.63
2022-10-18T04:41:42.192Z,102970.34
2022-10-18T04:44:10.664Z,102978.03
2022-10-18T04:46:39.013Z,102970.81
2022-10-18T04:49:08.978Z,102964.44
2022-10-18T04:51:38.308Z,102959.03
2022-10-18T04:54:06.867Z,102957.06
2022-10-18T04:56:35.366Z,102957.56
2022-10-18T04:59:03.960Z,102961.00
2022-10-18T05:01:32.359Z,102958.19
2022-10-18T05:04:01.063Z,102957.03
2022-10-18T05:06:30.930Z,102962.41
2022-10-18T05:08:59.409Z,102964.50
2022-10-18T05:11:27.858Z,102960.56
2022-10-18T05:13:56.368Z,102957.78
2022-10-18T05:16:24.782Z,102957.44
2022-10-18T05:18:53.253Z,102950.56
2022-10-18T05:21:21.682Z,102955.78
2022-10-18T05:23:51.539Z,102946.94
2022-10-18T05:26:19.962Z,102963.47
2022-10-18T05:28:48.414Z,102959.72
2022-10-18T05:31:16.829Z,102958.06
2022-10-18T05:33:45.312Z,102955.63
2022-10-18T05:36:13.721Z,102956.63
2022-10-18T05:38:43.568Z,102965.81
2022-10-18T05:41:13.996Z,102956.66
2022-10-18T05:43:42.807Z,102968.13
2022-10-18T05:46:15.315Z,102964.69
2022-10-18T05:48:45.115Z,102968.94
2022-10-18T05:51:13.644Z,102973.84
2022-10-18T05:53:42.076Z,102967.59
2022-10-18T05:56:12.089Z,102969.41
2022-10-18T05:58:42.186Z,102965.00
2022-10-18T06:01:11.611Z,102965.81
2022-10-18T06:03:40.075Z,102965.00
2022-10-18T06:06:10.266Z,102958.13
2022-10-18T06:08:40.498Z,102960.09
2022-10-18T06:11:09.515Z,102962.53
2022-10-18T06:13:42.937Z,102961.56
2022-10-18T06:16:12.894Z,102964.16
2022-10-18T06:18:41.781Z,102963.34
2022-10-18T06:21:11.068Z,102952.25
2022-10-18T06:23:39.331Z,102957.03
2022-10-18T06:26:08.964Z,102957.53
2022-10-18T06:28:38.839Z,102969.28
2022-10-18T06:31:08.738Z,102963.88
2022-10-18T06:33:37.561Z,102952.25
2022-10-18T06:36:08.246Z,102961.91
2022-10-18T06:38:36.740Z,102955.84
2022-10-18T06:41:06.304Z,102955.31
2022-10-18T06:43:34.871Z,102953.00
2022-10-18T06:46:05.248Z,102944.63
2022-10-18T06:48:36.201Z,102939.88
2022-10-18T06:51:07.633Z,102932.69
2022-10-18T06:53:44.131Z,102928.06
2022-10-18T06:56:17.304Z,102926.75
2022-10-18T06:58:45.732Z,102926.75
2022-10-18T07:01:16.414Z,102926.75
2022-10-18T07:03:47.616Z,102919.88
2022-10-18T07:06:18.582Z,102918.41
2022-10-18T07:08:47.949Z,102914.16
2022-10-18T07:11:16.897Z,102916.00
2022-10-18T07:13:45.395Z,102910.75
2022-10-18T07:16:18.168Z,102912.25
2022-10-18T07:18:49.971Z,102918.13
2022-10-18T07:21:20.560Z,102911.25
2022-10-18T07:23:49.777Z,102912.25
2022-10-18T07:26:20.801Z,102909.13
2022-10-18T07:28:51.759Z,102910.56
2022-10-18T07:31:20.341Z,102910.56
2022-10-18T07:33:50.147Z,102907.00
2022-10-18T07:36:18.754Z,102907.81
2022-10-18T07:38:47.149Z,102908.63
2022-10-18T07:41:16.099Z,102910.72
2022-10-18T07:43:46.410Z,102902.22
2022-10-18T07:46:16.419Z,102898.78
2022-10-18T07:48:44.939Z,102899.78
2022-10-18T07:51:15.345Z,102901.59
2022-10-18T07:53:43.930Z,102892.75
2022-10-18T07:56:16.641Z,102896.16
2022-10-18T07:58:46.248Z,102892.56
2022-10-18T08:01:15.811Z,102893.56
2022-10-18T08:03:44.783Z,102880.28
2022-10-18T08:06:16.535Z,102888.44
2022-10-18T08:08:45.300Z,102883.47
2022-10-18T08:11:16.635Z,102880.03
2022-10-18T08:13:45.646Z,102870.56
2022-10-18T08:16:15.749Z,102870.38
2022-10-18T08:18:44.216Z,102870.38
2022-10-18T08:21:15.281Z,102869.56
2022-10-18T08:23:44.011Z,102865.66
2022-10-18T08:26:15.122Z,102862.59
2022-10-18T08:28:53.542Z,102857.34
2022-10-18T08:31:27.418Z,102849.31
2022-10-18T08:33:57.393Z,102853.38
2022-10-18T08:36:27.270Z,102856.00
2022-10-18T08:38:55.749Z,102846.69
2022-10-18T08:41:44.526Z,102845.88
2022-10-18T08:44:18.630Z,102840.47
2022-10-18T08:46:49.209Z,102842.56
2022-10-18T08:49:26.738Z,102834.50
2022-10-18T08:51:57.980Z,102833.16
2022-10-18T08:54:33.865Z,102828.91
2022-10-18T08:57:04.208Z,102829.38
2022-10-18T08:59:40.394Z,102828.56
2022-10-18T09:02:18.423Z,102826.13
2022-10-18T09:04:52.564Z,102820.88
2022-10-18T09:07:46.913Z,102818.91
2022-10-18T09:10:27.425Z,102816.09
2022-10-18T09:13:16.120Z,102813.66
2022-10-18T09:15:48.597Z,102805.78
2022-10-18T09:18:44.213Z,102804.00
2022-10-18T09:21:22.796Z,102803.00
2022-10-18T09:24:05.498Z,102796.75
2022-10-18T09:26:42.904Z,102795.59
2022-10-18T09:29:28.708Z,102785.94
2022-10-18T09:32:04.824Z,102785.13
2022-10-18T09:34:40.054Z,102782.31
2022-10-18T09:37:15.030Z,102781.16
2022-10-18T09:39:47.150Z,102779.16
2022-10-18T09:42:26.633Z,102773.91
2022-10-18T09:45:00.225Z,102763.78
2022-10-18T09:47:35.246Z,102761.53
2022-10-18T09:50:07.537Z,102757.09
2022-10-18T09:52:40.743Z,102762.97
2022-10-18T09:55:19.853Z,102755.13
2022-10-18T09:57:53.877Z,102748.69
2022-10-18T10:00:27.253Z,102750.97
2022-10-18T10:02:55.668Z,102745.72
2022-10-18T10:05:24.053Z,102742.91
2022-10-18T10:07:59.782Z,102735.88
2022-10-18T10:10:31.137Z,102733.06
2022-10-18T10:13:08.201Z,102728.47
2022-10-18T10:15:39.325Z,102720.25
2022-10-18T10:18:21.316Z,102721.88
2022-10-18T10:20:53.457Z,102716.28
2022-10-18T10:23:24.367Z,102712.03
2022-10-18T10:25:56.579Z,102704.34
2022-10-18T10:28:29.949Z,102708.78
2022-10-18T10:31:19.455Z,102702.09
2022-10-18T10:33:49.051Z,102701.91
2022-10-18T10:36:19.888Z,102681.75
2022-10-18T10:39:05.239Z,102685.81
2022-10-18T10:41:35.820Z,102671.91
2022-10-18T10:44:06.470Z,102676.53
2022-10-18T10:46:37.371Z,102670.47
2022-10-18T10:49:39.061Z,102672.78
2022-10-18T10:52:08.196Z,102671.81
2022-10-18T10:54:51.361Z,102667.28
2022-10-18T10:57:25.421Z,102653.00
2022-10-18T10:59:55.743Z,102642.16
2022-10-18T11:02:27.846Z,102651.47
2022-10-18T11:04:58.011Z,102642.81
2022-10-18T11:07:31.404Z,102635.56
2022-10-18T11:10:04.845Z,102632.75
2022-10-18T11:12:37.813Z,102628.16
2022-10-18T11:15:22.182Z,102620.28
2022-10-18T11:18:03.843Z,102617.50
2022-10-18T11:20:36.919Z,102607.63
2022-10-18T11:23:09.446Z,102616.31
2022-10-18T11:26:13.586Z,102601.41
2022-10-18T11:29:06.835Z,102599.41
2022-10-18T11:31:41.652Z,102600.84
2022-10-18T11:34:40.292Z,102591.34
2022-10-18T11:37:28.058Z,102587.13
2022-10-18T11:40:05.028Z,102569.41
2022-10-18T11:42:43.333Z,102569.06
2022-10-18T11:45:27.187Z,102557.75
2022-10-18T11:48:01.178Z,102555.13
2022-10-18T11:50:38.795Z,102555.78
2022-10-18T11:53:19.403Z,102554.94
2022-10-18T11:56:01.151Z,102546.28
2022-10-18T11:58:43.930Z,102538.22
2022-10-18T12:01:26.243Z,102530.38
2022-10-18T12:04:04.054Z,102527.75
2022-10-18T12:06:36.493Z,102526.38
2022-10-18T12:09:11.414Z,102516.50
2022-10-18T12:11:47.174Z,102516.31
2022-10-18T12:14:24.292Z,102503.84
2022-10-18T12:17:27.839Z,102497.78
2022-10-18T12:19:49.229Z,102504.03
2022-10-18T12:22:24.430Z,102491.75
2022-10-18T12:24:53.298Z,102492.53
2022-10-18T12:27:29.647Z,102485.06
2022-10-18T12:30:03.488Z,102488.31
2022-10-18T12:32:36.218Z,102480.81
2022-10-18T12:35:08.475Z,102475.56
2022-10-18T12:37:52.557Z,102475.94
2022-10-18T12:40:25.039Z,102475.38
2022-10-18T12:42:54.800Z,102468.91
2022-10-18T12:45:33.510Z,102470.72
2022-10-18T12:48:06.825Z,102465.84
2022-10-18T12:50:38.558Z,102460.13
2022-10-18T12:53:17.704Z,102457.69
2022-10-18T12:55:46.534Z,102454.41
2022-10-18T12:58:27.796Z,102453.81
2022-10-18T13:01:04.817Z,102444.16
2022-10-18T13:04:01.702Z,102444.97
2022-10-18T13:07:17.592Z,102437.91
2022-10-18T13:10:41.042Z,102429.06
2022-10-18T13:13:39.578Z,102433.31
2022-10-18T13:16:22.611Z,102432.31
2022-10-18T13:18:57.150Z,102424.44
2022-10-18T13:21:41.899Z,102416.56
2022-10-18T13:24:34.173Z,102414.78
2022-10-18T13:27:40.660Z,102410.34
2022-10-18T13:30:31.537Z,102413.81
2022-10-18T13:33:16.803Z,102405.56
2022-10-18T13:35:51.960Z,102401.50
2022-10-18T13:38:59.656Z,102398.06
2022-10-18T13:41:34.277Z,102394.59
2022-10-18T13:44:28.854Z,102391.19
2022-10-18T13:47:37.692Z,102382.34
2022-10-18T13:50:29.058Z,102386.94
2022-10-18T13:53:31.583Z,102375.84
2022-10-18T13:56:23.168Z,102374.84
2022-10-18T13:59:15.490Z,102380.06
2022-10-18T14:01:57.150Z,102370.59
2022-10-18T14:05:10.581Z,102364.72
2022-10-18T14:07:44.498Z,102354.81
2022-10-18T14:10:29.765Z,102349.75
2022-10-18T14:13:16.190Z,102351.38
2022-10-18T14:15:48.831Z,102347.78
2022-10-18T14:18:22.157Z,102344.97
2022-10-18T14:21:12.691Z,102342.16
2022-10-18T14:23:44.741Z,102337.53
2022-10-18T14:26:16.304Z,102336.97
2022-10-18T14:29:02.193Z,102332.16
2022-10-18T14:31:31.405Z,102324.13
2022-10-18T14:33:59.815Z,102323.03
2022-10-18T14:36:31.404Z,102322.31
2022-10-18T14:39:02.130Z,102322.75
2022-10-18T14:41:32.923Z,102312.06
2022-10-18T14:44:21.357Z,102311.44
2022-10-18T14:46:52.014Z,102305.38
2022-10-18T14:49:21.873Z,102301.97
2022-10-18T14:51:52.719Z,102303.16
2022-10-18T14:54:29.027Z,102296.09
2022-10-18T14:57:00.777Z,102294.47
2022-10-18T14:59:33.837Z,102294.88
2022-10-18T15:02:06.228Z,102288.97
2022-10-18T15:04:34.750Z,102280.50
2022-10-18T15:07:06.398Z,102280.06
2022-10-18T15:09:36.959Z,102273.81
2022-10-18T15:12:07.164Z,102279.25
2022-10-18T15:14:38.031Z,102276.63
2022-10-18T15:17:13.143Z,102274.81
2022-10-18T15:19:54.343Z,102272.81
2022-10-18T15:22:33.343Z,102270.38
2022-10-18T15:25:19.603Z,102265.09
2022-10-18T15:27:50.693Z,102267.97
2022-10-18T15:30:25.618Z,102265.97
2022-10-18T15:32:56.329Z,102260.72
2022-10-18T15:35:28.846Z,102264.34
2022-10-18T15:37:59.026Z,102267.16
2022-10-18T15:40:34.083Z,102263.91
2022-10-18T15:43:05.936Z,102271.59
2022-10-18T15:45:38.687Z,102262.72
2022-10-18T15:48:26.097Z,102266.16
2022-10-18T15:50:56.340Z,102267.78
2022-10-18T15:53:34.016Z,102272.00
2022-10-18T15:56:05.096Z,102266.78
2022-10-18T15:58:41.696Z,102267.19
2022-10-18T16:01:17.283Z,102261.16
2022-10-18T16:03:47.755Z,102257.38
2022-10-18T16:06:18.378Z,102260.59
2022-10-18T16:08:48.561Z,102257.78
2022-10-18T16:11:18.857Z,102262.22
2022-10-18T16:13:48.178Z,102260.41
2022-10-18T16:16:20.323Z,102258.16
2022-10-18T16:18:49.228Z,102263.56
2022-10-18T16:21:20.897Z,102259.97
2022-10-18T16:23:49.785Z,102259.97
2022-10-18T16:26:19.704Z,102253.09
2022-10-18T16:28:49.315Z,102248.03
2022-10-18T16:31:21.975Z,102246.63
2022-10-18T16:33:51.539Z,102249.66
2022-10-18T16:36:23.434Z,102238.56
2022-10-18T16:38:52.517Z,102237.56
2022-10-18T16:41:20.925Z,102235.75
2022-10-18T16:43:50.681Z,102234.75
2022-10-18T16:46:22.886Z,102224.25
2022-10-18T16:48:52.710Z,102216.84
2022-10-18T16:51:21.498Z,102221.09
2022-10-18T16:53:50.644Z,102220.09
2022-10-18T16:56:19.848Z,102213.34
2022-10-18T16:58:48.255Z,102211.13
2022-10-18T17:01:18.690Z,102206.75
2022-10-18T17:03:49.235Z,102206.19
2022-10-18T17:06:20.022Z,102208.41
2022-10-18T17:08:49.025Z,102201.56
2022-10-18T17:11:19.073Z,102199.75
2022-10-18T17:13:47.889Z,102198.13
2022-10-18T17:16:25.136Z,102193.50
2022-10-18T17:18:55.073Z,102194.91
2022-10-18T17:21:24.288Z,102196.72
2022-10-18T17:23:52.478Z,102197.91
2022-10-18T17:26:28.789Z,102194.28
2022-10-18T17:29:00.677Z,102182.16
2022-10-18T17:31:31.747Z,102188.84
2022-10-18T17:34:02.118Z,102180.16
2022-10-18T17:36:31.411Z,102182.19
2022-10-18T17:38:59.999Z,102178.97
2022-10-18T17:41:28.426Z,102174.38
2022-10-18T17:43:56.923Z,102174.03
2022-10-18T17:46:25.376Z,102178.50
2022-10-18T17:48:54.841Z,102170.66
2022-10-18T17:51:24.882Z,102169.06
2022-10-18T17:53:53.353Z,102166.44
2022-10-18T17:56:21.899Z,102162.03
2022-10-18T17:58:52.387Z,102162.44
2022-10-18T18:01:23.148Z,102157.59
2022-10-18T18:03:56.911Z,102160.03
2022-10-18T18:06:31.156Z,102158.00
2022-10-18T18:09:00.108Z,102159.44
2022-10-18T18:11:29.499Z,102156.81
2022-10-18T18:13:58.041Z,102156.59
2022-10-18T18:16:28.056Z,102152.16
2022-10-18T18:18:59.024Z,102146.09
2022-10-18T18:21:29.057Z,102148.94
2022-10-18T18:23:57.913Z,102141.88
2022-10-18T18:26:26.943Z,102131.97
2022-10-18T18:28:55.471Z,102133.59
2022-10-18T18:31:26.133Z,102134.41
2022-10-18T18:33:56.587Z,102137.63
2022-10-18T18:36:28.904Z,102131.19
2022-10-18T18:38:58.841Z,102126.72
2022-10-18T18:41:28.276Z,102131.84
2022-10-18T18:43:58.401Z,102129.81
2022-10-18T18:46:28.931Z,102127.22
2022-10-18T18:48:59.323Z,102127.00
2022-10-18T18:51:28.107Z,102125.38
2022-10-18T18:53:58.213Z,102114.50
2022-10-18T18:56:29.088Z,102110.66
2022-10-18T18:58:59.346Z,102113.69
2022-10-18T19:01:29.791Z,102114.09
2022-10-18T19:04:00.168Z,102118.94
2022-10-18T19:06:30.164Z,102118.72
2022-10-18T19:09:01.646Z,102112.47
2022-10-18T19:11:33.133Z,102100.97
2022-10-18T19:14:02.115Z,102100.97
2022-10-18T19:16:31.899Z,102102.97
2022-10-18T19:19:02.422Z,102097.72
2022-10-18T19:21:33.069Z,102095.31
2022-10-18T19:24:03.515Z,102093.69
2022-10-18T19:26:35.735Z,102094.72
2022-10-18T19:29:10.721Z,102088.66
2022-10-18T19:31:40.430Z,102084.63
2022-10-18T19:34:10.766Z,102087.44
2022-10-18T19:36:40.411Z,102085.03
2022-10-18T19:39:13.133Z,102082.41
2022-10-18T19:41:41.573Z,102082.41
2022-10-18T19:44:10.004Z,102078.97
2022-10-18T19:46:38.664Z,102068.06
2022-10-18T19:49:07.146Z,102066.66
2022-10-18T19:51:35.594Z,102068.28
2022-10-18T19:54:04.218Z,102068.06
2022-10-18T19:56:34.194Z,102071.50
2022-10-18T19:59:02.710Z,102062.63
2022-10-18T20:01:31.240Z,102047.88
2022-10-18T20:03:59.765Z,102058.97
2022-10-18T20:06:28.495Z,102044.25
2022-10-18T20:08:56.953Z,102043.25
2022-10-18T20:11:27.900Z,102039.41
2022-10-18T20:13:59.736Z,102035.56
2022-10-18T20:16:31.192Z,102018.59
2022-10-18T20:19:01.091Z,102021.00
2022-10-18T20:21:31.593Z,102019.59
2022-10-18T20:24:00.131Z,102021.00
2022-10-18T20:26:28.628Z,102015.75
2022-10-18T20:28:59.993Z,102014.75
2022-10-18T20:31:30.495Z,102004.03
2022-10-18T20:34:01.329Z,102005.25
2022-10-18T20:36:31.207Z,101996.56
2022-10-18T20:39:00.541Z,101990.31
2022-10-18T20:41:30.618Z,101979.22
2022-10-18T20:44:02.714Z,101971.34
2022-10-18T20:46:32.654Z,101971.34
2022-10-18T20:49:01.474Z,101963.88
2022-10-18T20:51:30.227Z,101960.84
2022-10-18T20:53:58.793Z,101965.72
2022-10-18T20:56:27.864Z,101956.44
2022-10-18T20:58:58.095Z,101955.63
2022-10-18T21:01:29.829Z,101954.81
2022-10-18T21:04:00.260Z,101944.53
2022-10-18T21:06:30.241Z,101946.53
2022-10-18T21:09:00.280Z,101942.69
2022-10-18T21:11:30.670Z,101942.28
2022-10-18T21:14:02.771Z,101936.63
2022-10-18T21:16:34.025Z,101932.78
2022-10-18T21:19:05.661Z,101937.81
2022-10-18T21:21:34.413Z,101930.75
2022-10-18T21:24:06.872Z,101921.88
2022-10-18T21:26:36.858Z,101924.88
2022-10-18T21:29:06.361Z,101909.72
2022-10-18T21:31:39.220Z,101913.75
2022-10-18T21:34:12.948Z,101902.25
2022-10-18T21:36:42.622Z,101904.25
2022-10-18T21:39:15.013Z,101894.53
2022-10-18T21:41:44.112Z,101895.94
2022-10-18T21:44:12.952Z,101884.84
2022-10-18T21:46:44.193Z,101881.41
2022-10-18T21:49:13.696Z,101886.66
2022-10-18T21:51:42.859Z,101879.59
2022-10-18T21:54:12.875Z,101879.25
2022-10-18T21:56:42.105Z,101871.75
2022-10-18T21:59:12.105Z,101872.78
2022-10-18T22:01:43.712Z,101869.75
2022-10-18T22:04:19.898Z,101873.19
2022-10-18T22:06:48.395Z,101870.75
2022-10-18T22:09:16.984Z,101870.75
2022-10-18T22:11:49.137Z,101866.31
2022-10-18T22:14:17.563Z,101866.75
2022-10-18T22:16:47.501Z,101851.63
2022-10-18T22:19:15.985Z,101854.25
2022-10-18T22:21:44.418Z,101843.75
2022-10-18T22:24:12.856Z,101854.63
2022-10-18T22:26:43.307Z,101838.47
2022-10-18T22:29:13.847Z,101847.75
2022-10-18T22:31:45.186Z,101847.31
2022-10-18T22:34:17.584Z,101830.34
2022-10-18T22:36:46.707Z,101829.31
2022-10-18T22:39:15.712Z,101826.75
2022-10-18T22:41:44.911Z,101822.69
2022-10-18T22:44:13.459Z,101817.25
2022-10-18T22:46:42.766Z,101813.56
2022-10-18T22:49:12.849Z,101815.34
2022-10-18T22:51:42.784Z,101799.41
2022-10-18T22:54:11.466Z,101804.44
2022-10-18T22:56:40.007Z,101800.19
2022-10-18T22:59:08.452Z,101793.13
2022-10-18T23:01:37.415Z,101789.47
2022-10-18T23:04:06.019Z,101787.88
2022-10-18T23:06:37.152Z,101776.78
2022-10-18T23:09:08.992Z,101780.22
2022-10-18T23:11:38.497Z,101774.16
2022-10-18T23:14:07.892Z,101775.38
2022-10-18T23:16:37.020Z,101773.41
2022-10-18T23:19:05.209Z,101775.09
2022-10-18T23:21:35.826Z,101768.81
2022-10-18T23:24:04.693Z,101770.63
2022-10-18T23:26:34.559Z,101757.72
2022-10-18T23:29:03.221Z,101759.34
2022-10-18T23:31:33.523Z,101745.63
2022-10-18T23:34:03.873Z,101745.41
2022-10-18T23:36:33.734Z,101730.47
2022-10-18T23:39:02.490Z,101728.22
2022-10-18T23:41:31.013Z,101726.19
2022-10-18T23:44:00.814Z,101725.75
2022-10-18T23:46:29.337Z,101715.63
2022-10-18T23:48:57.844Z,101716.22
2022-10-18T23:51:26.338Z,101709.75
2022-10-18T23:53:54.790Z,101708.50
2022-10-18T23:56:23.202Z,101703.06
2022-10-18T23:58:51.644Z,101704.22
